Coalton, Oklahoma
Current Conditions -  °F | °C
As of 6:55 PM on Monday 26 Jan 2015 (Local Time) from KOKM Reporting Station
Clear Clear  
Wind Chill: 58°   Ceiling: Unl
Heat Index: 58°   Visibility: 10mi
Dew Point: 35°   Wind: 6mph
Humidity: 42%   Direction: 280°W
Pressure: 30.02"   Gusts: NA
Location:  35.4729°N, 95.9709°W
Report Text: KOKM 270055Z AUTO 28005KT 10SM CLR 15/02 A3002 RMK AO2 T01470018
Loading
Personal Weather Stations






























Interactive Weather Map New forecast layout! Learn more

10-Day Weather Forecast

Advertisements
Track Severe Weather on mobile